Cmb Ariane — VRIT7 — position and weather

sailwx.info

Track history (hours):
 
Tides and Currents Weather Stations Pressure Air Temp Water Temp Dewpoint Dewpoint Depression Visibility Wind Speed Wind Dir Waves Ship Positions

Cmb Ariane

Last reported at 2017-Mar-26 18:33 UTC. Time now 2017-Mar-26 19:05 UTC.
Position N 55°11' E 018°07'.

Length 180 m; draft 6.4 m.

Type: Cargo ship. MMSI: 477229600.

Date/timePositionNaut miles runAvg speedWind from/ knotsBaromVisibWave heightAir tempDewpointWater temp
2017-Mar-26 18:33N 55°11' E 018°07'2 1.7
2017-Mar-26 17:29N 55°09' E 018°05'2 2.2
2017-Mar-26 16:32N 55°07' E 018°06'5 5.0
2017-Mar-26 15:33N 55°03' E 018°10'1 0.9
2017-Mar-26 14:33N 55°03' E 018°09'1 1.0
2017-Mar-26 13:33N 55°04' E 018°07'1 1.0
2017-Mar-26 12:33N 55°04' E 018°06'1 1.0
2017-Mar-26 11:31N 55°05' E 018°04'2 0.9
2017-Mar-26 09:14N 55°06' E 018°01'0 0.6
2017-Mar-26 08:32N 55°06' E 018°00'7 7.5
2017-Mar-26 07:33N 54°59' E 017°56'1312.9
2017-Mar-26 06:33N 54°55' E 017°35'1110.7
2017-Mar-26 05:33N 54°52' E 017°17'1313.1
2017-Mar-26 04:33N 54°49' E 016°55'3112.9
2017-Mar-26 02:10N 54°43' E 016°02'812.6
2017-Mar-26 01:33N 54°42' E 015°49'1312.4
2017-Mar-26 00:32N 54°41' E 015°27'1212.5
2017-Mar-25 23:33N 54°39' E 015°06'1412.8
2017-Mar-25 22:29N 54°37' E 014°43'1212.6
2017-Mar-25 21:33N 54°36' E 014°23'1312.7
2017-Mar-25 20:33N 54°39' E 014°02'3611.9
2017-Mar-25 17:31N 55°05' E 013°17'1212.7
2017-Mar-25 16:33N 55°06' E 012°56'1111.1
2017-Mar-25 15:33N 55°10' E 012°38'1312.8
2017-Mar-25 14:33N 55°22' E 012°39'1211.7
2017-Mar-25 13:33N 55°34' E 012°42'1110.9
2017-Mar-25 12:33N 55°45' E 012°41'1313.5
2017-Mar-25 11:33N 55°58' E 012°40'1211.9
2017-Mar-25 10:33N 56°08' E 012°28'1511.6
2017-Mar-25 09:17N 56°16' E 012°06'3712.3
2017-Mar-25 06:18N 56°52' E 011°48'1013.3
2017-Mar-25 05:33N 57°01' E 011°41'1313.3
2017-Mar-25 04:34N 57°13' E 011°32'1313.1
2017-Mar-25 03:33N 57°26' E 011°25'1111.4
2017-Mar-25 02:33N 57°34' E 011°11'1212.2
2017-Mar-25 01:33N 57°42' E 010°54'1211.9
2017-Mar-25 00:33N 57°47' E 010°33'16912.0
2017-Mar-24 10:29N 55°50' E 006°49'1112.3
2017-Mar-24 09:34N 55°40' E 006°39'1512.2
2017-Mar-24 08:19N 55°27' E 006°26'15511.3
2017-Mar-23 18:33N 53°08' E 004°29'1110.7
2017-Mar-23 17:34N 52°58' E 004°21'1110.8
2017-Mar-23 16:33N 52°49' E 004°12'1110.9
2017-Mar-23 15:33N 52°41' E 003°60'1111.5
2017-Mar-23 14:33N 52°32' E 003°47'6412.5
2017-Mar-23 09:24N 51°45' E 002°35'1113.2
2017-Mar-23 08:33N 51°37' E 002°24'1312.9
2017-Mar-23 07:33N 51°27' E 002°11'1212.5
2017-Mar-23 06:33N 51°14' E 002°07'1312.6
2017-Mar-23 05:33N 51°08' E 001°50'1312.6
2017-Mar-23 04:34N 51°00' E 001°34'1212.1
2017-Mar-23 03:33N 50°50' E 001°24'4611.6
2017-Mar-22 23:33N 50°23' E 000°24'1312.2
2017-Mar-22 22:30N 50°19' E 000°05'1211.9
2017-Mar-22 21:32N 50°16' W 000°12'1212.0
2017-Mar-22 20:33N 50°13' W 000°30'2612.5
2017-Mar-22 18:26N 50°06' W 001°09'1213.4
2017-Mar-22 17:33N 50°03' W 001°27'1414.1
2017-Mar-22 16:33N 49°59' W 001°49'1514.5
2017-Mar-22 15:33N 49°56' W 002°10'2114.3
2017-Mar-22 14:07N 49°50' W 002°41'813.9
2017-Mar-22 13:33N 49°48' W 002°53'1413.4
2017-Mar-22 12:31N 49°43' W 003°13'9012.8
2017-Mar-22 05:30N 48°57' W 005°12'1212.1
2017-Mar-22 04:31N 48°51' W 005°27'  
2017-Mar-19 16:30N 39°11' W 010°19'1110.7
2017-Mar-19 15:31N 39°00' W 010°19'1010.6
2017-Mar-19 14:33N 38°50' W 010°19'1110.5
2017-Mar-19 13:31N 38°39' W 010°17'1210.7
2017-Mar-19 12:26N 38°28' W 010°14'910.8
2017-Mar-19 11:33N 38°19' W 010°12'1110.7
2017-Mar-19 10:33N 38°08' W 010°09'1110.7
2017-Mar-19 09:33N 37°58' W 010°07'1111.5
2017-Mar-19 08:34N 37°46' W 010°04'1111.4
2017-Mar-19 07:34N 37°35' W 010°01'1211.8
2017-Mar-19 06:33N 37°24' W 009°59'1212.0
2017-Mar-19 05:33N 37°12' W 009°57'1211.8
2017-Mar-19 04:33N 37°00' W 009°54'1211.7
2017-Mar-19 03:33N 36°48' W 009°51'1211.8
2017-Mar-19 02:33N 36°38' W 009°44'1211.8
2017-Mar-19 01:33N 36°29' W 009°36'1211.6
2017-Mar-19 00:33N 36°19' W 009°28'  
Track history (hours):
 
Tides and Currents Weather Stations Pressure Air Temp Water Temp Dewpoint Dewpoint Depression Visibility Wind Speed Wind Dir Waves Ship Positions

Cmb Ariane

Last reported at 2017-Mar-26 18:33 UTC. Time now 2017-Mar-26 19:05 UTC.
Position N 55°11' E 018°07'.

Length 180 m; draft 6.4 m.

Type: Cargo ship. MMSI: 477229600.

Date/timePositionNaut miles runAvg speedWind from/ knotsBaromVisibWave heightAir tempDewpointWater temp
2017-Mar-26 18:33N 55°11' E 018°07'2 1.7
2017-Mar-26 17:29N 55°09' E 018°05'2 2.2
2017-Mar-26 16:32N 55°07' E 018°06'5 5.0
2017-Mar-26 15:33N 55°03' E 018°10'1 0.9
2017-Mar-26 14:33N 55°03' E 018°09'1 1.0
2017-Mar-26 13:33N 55°04' E 018°07'1 1.0
2017-Mar-26 12:33N 55°04' E 018°06'1 1.0
2017-Mar-26 11:31N 55°05' E 018°04'2 0.9
2017-Mar-26 09:14N 55°06' E 018°01'0 0.6
2017-Mar-26 08:32N 55°06' E 018°00'7 7.5
2017-Mar-26 07:33N 54°59' E 017°56'1312.9
2017-Mar-26 06:33N 54°55' E 017°35'1110.7
2017-Mar-26 05:33N 54°52' E 017°17'1313.1
2017-Mar-26 04:33N 54°49' E 016°55'3112.9
2017-Mar-26 02:10N 54°43' E 016°02'812.6
2017-Mar-26 01:33N 54°42' E 015°49'1312.4
2017-Mar-26 00:32N 54°41' E 015°27'1212.5
2017-Mar-25 23:33N 54°39' E 015°06'1412.8
2017-Mar-25 22:29N 54°37' E 014°43'1212.6
2017-Mar-25 21:33N 54°36' E 014°23'1312.7
2017-Mar-25 20:33N 54°39' E 014°02'3611.9
2017-Mar-25 17:31N 55°05' E 013°17'1212.7
2017-Mar-25 16:33N 55°06' E 012°56'1111.1
2017-Mar-25 15:33N 55°10' E 012°38'1312.8
2017-Mar-25 14:33N 55°22' E 012°39'1211.7
2017-Mar-25 13:33N 55°34' E 012°42'1110.9
2017-Mar-25 12:33N 55°45' E 012°41'1313.5
2017-Mar-25 11:33N 55°58' E 012°40'1211.9
2017-Mar-25 10:33N 56°08' E 012°28'1511.6
2017-Mar-25 09:17N 56°16' E 012°06'3712.3
2017-Mar-25 06:18N 56°52' E 011°48'1013.3
2017-Mar-25 05:33N 57°01' E 011°41'1313.3
2017-Mar-25 04:34N 57°13' E 011°32'1313.1
2017-Mar-25 03:33N 57°26' E 011°25'1111.4
2017-Mar-25 02:33N 57°34' E 011°11'1212.2
2017-Mar-25 01:33N 57°42' E 010°54'1211.9
2017-Mar-25 00:33N 57°47' E 010°33'16912.0
2017-Mar-24 10:29N 55°50' E 006°49'1112.3
2017-Mar-24 09:34N 55°40' E 006°39'1512.2
2017-Mar-24 08:19N 55°27' E 006°26'15511.3
2017-Mar-23 18:33N 53°08' E 004°29'1110.7
2017-Mar-23 17:34N 52°58' E 004°21'1110.8
2017-Mar-23 16:33N 52°49' E 004°12'1110.9
2017-Mar-23 15:33N 52°41' E 003°60'1111.5
2017-Mar-23 14:33N 52°32' E 003°47'6412.5
2017-Mar-23 09:24N 51°45' E 002°35'1113.2
2017-Mar-23 08:33N 51°37' E 002°24'1312.9
2017-Mar-23 07:33N 51°27' E 002°11'1212.5
2017-Mar-23 06:33N 51°14' E 002°07'1312.6
2017-Mar-23 05:33N 51°08' E 001°50'1312.6
2017-Mar-23 04:34N 51°00' E 001°34'1212.1
2017-Mar-23 03:33N 50°50' E 001°24'4611.6
2017-Mar-22 23:33N 50°23' E 000°24'1312.2
2017-Mar-22 22:30N 50°19' E 000°05'1211.9
2017-Mar-22 21:32N 50°16' W 000°12'1212.0
2017-Mar-22 20:33N 50°13' W 000°30'2612.5
2017-Mar-22 18:26N 50°06' W 001°09'1213.4
2017-Mar-22 17:33N 50°03' W 001°27'1414.1
2017-Mar-22 16:33N 49°59' W 001°49'1514.5
2017-Mar-22 15:33N 49°56' W 002°10'2114.3
2017-Mar-22 14:07N 49°50' W 002°41'813.9
2017-Mar-22 13:33N 49°48' W 002°53'1413.4
2017-Mar-22 12:31N 49°43' W 003°13'9012.8
2017-Mar-22 05:30N 48°57' W 005°12'1212.1
2017-Mar-22 04:31N 48°51' W 005°27'  
2017-Mar-19 16:30N 39°11' W 010°19'1110.7
2017-Mar-19 15:31N 39°00' W 010°19'1010.6
2017-Mar-19 14:33N 38°50' W 010°19'1110.5
2017-Mar-19 13:31N 38°39' W 010°17'1210.7
2017-Mar-19 12:26N 38°28' W 010°14'910.8
2017-Mar-19 11:33N 38°19' W 010°12'1110.7
2017-Mar-19 10:33N 38°08' W 010°09'1110.7
2017-Mar-19 09:33N 37°58' W 010°07'1111.5
2017-Mar-19 08:34N 37°46' W 010°04'1111.4
2017-Mar-19 07:34N 37°35' W 010°01'1211.8
2017-Mar-19 06:33N 37°24' W 009°59'1212.0
2017-Mar-19 05:33N 37°12' W 009°57'1211.8
2017-Mar-19 04:33N 37°00' W 009°54'1211.7
2017-Mar-19 03:33N 36°48' W 009°51'1211.8
2017-Mar-19 02:33N 36°38' W 009°44'1211.8
2017-Mar-19 01:33N 36°29' W 009°36'1211.6
2017-Mar-19 00:33N 36°19' W 009°28'  

Dump ship's entire track history